createdAt,value
2022-12-22T00:01:56.977Z,97460.59
2022-12-22T00:04:42.412Z,97460.13
2022-12-22T00:07:27.754Z,97461.66
2022-12-22T00:10:13.156Z,97458.44
2022-12-22T00:12:58.509Z,97453.53
2022-12-22T00:15:53.305Z,97457.13
2022-12-22T00:18:39.079Z,97444.47
2022-12-22T00:21:24.244Z,97441.16
2022-12-22T00:24:09.578Z,97435.91
2022-12-22T00:26:54.974Z,97425.41
2022-12-22T00:29:40.758Z,97429.22
2022-12-22T00:32:32.575Z,97423.47
2022-12-22T00:35:18.851Z,97429.19
2022-12-22T00:38:04.113Z,97419.88
2022-12-22T00:40:49.361Z,97424.66
2022-12-22T00:43:34.762Z,97412.59
2022-12-22T00:46:22.522Z,97402.66
2022-12-22T00:49:09.191Z,97405.75
2022-12-22T00:51:54.666Z,97400.50
2022-12-22T00:54:41.992Z,97394.63
2022-12-22T00:57:37.287Z,97396.56
2022-12-22T01:00:24.989Z,97399.19
2022-12-22T01:03:10.354Z,97395.09
2022-12-22T01:05:55.268Z,97386.13
2022-12-22T01:08:40.491Z,97382.28
2022-12-22T01:11:26.334Z,97385.25
2022-12-22T01:14:11.448Z,97380.72
2022-12-22T01:16:56.727Z,97380.59
2022-12-22T01:19:42.011Z,97374.56
2022-12-22T01:22:34.273Z,97365.00
2022-12-22T01:25:19.562Z,97363.34
2022-12-22T01:28:04.804Z,97362.63
2022-12-22T01:30:50.064Z,97358.59
2022-12-22T01:33:35.496Z,97358.09
2022-12-22T01:36:20.759Z,97358.31
2022-12-22T01:39:06.085Z,97350.56
2022-12-22T01:41:51.252Z,97345.88
2022-12-22T01:44:37.063Z,97339.69
2022-12-22T01:47:46.933Z,97340.75
2022-12-22T01:50:54.567Z,97340.63
2022-12-22T01:53:47.463Z,97329.53
2022-12-22T01:56:32.765Z,97333.06
2022-12-22T01:59:22.772Z,97329.16
2022-12-22T02:02:08.066Z,97321.97
2022-12-22T02:05:00.039Z,97319.91
2022-12-22T02:08:30.936Z,97325.34
2022-12-22T02:12:15.516Z,97316.50
2022-12-22T02:15:26.898Z,97312.56
2022-12-22T02:18:42.511Z,97292.63
2022-12-22T02:21:36.939Z,97295.25
2022-12-22T02:25:09.205Z,97295.44
2022-12-22T02:27:59.714Z,97289.00
2022-12-22T02:30:47.018Z,97279.25
2022-12-22T02:33:32.445Z,97279.41
2022-12-22T02:36:48.005Z,97270.78
2022-12-22T02:39:51.080Z,97269.97
2022-12-22T02:42:52.629Z,97262.22
2022-12-22T02:46:05.156Z,97254.19
2022-12-22T02:49:24.551Z,97247.53
2022-12-22T02:52:21.381Z,97250.59
2022-12-22T02:55:06.712Z,97245.91
2022-12-22T02:57:52.932Z,97245.41
2022-12-22T03:00:38.019Z,97244.56
2022-12-22T03:03:23.227Z,97231.03
2022-12-22T03:06:08.159Z,97232.84
2022-12-22T03:08:53.243Z,97223.31
2022-12-22T03:11:38.380Z,97216.38
2022-12-22T03:14:23.615Z,97217.47
2022-12-22T03:17:08.967Z,97218.31
2022-12-22T03:19:54.390Z,97212.34
2022-12-22T03:22:39.724Z,97217.63
2022-12-22T03:25:25.490Z,97201.28
2022-12-22T03:27:52.000Z,97205.03
2022-12-22T03:30:18.759Z,97191.56
2022-12-22T03:32:45.261Z,97195.34
2022-12-22T03:35:11.683Z,97190.09
2022-12-22T03:37:38.222Z,97183.28
2022-12-22T03:40:05.500Z,97181.06
2022-12-22T03:42:50.787Z,97170.03
2022-12-22T03:45:36.053Z,97172.66
2022-12-22T03:48:02.553Z,97168.50
2022-12-22T03:50:29.242Z,97167.97
2022-12-22T03:52:56.422Z,97169.22
2022-12-22T03:55:22.910Z,97163.00
2022-12-22T03:57:49.442Z,97156.75
2022-12-22T04:00:16.528Z,97155.34
2022-12-22T04:02:43.274Z,97143.06
2022-12-22T04:05:10.452Z,97136.66
2022-12-22T04:07:36.948Z,97133.94
2022-12-22T04:10:23.334Z,97126.16
2022-12-22T04:12:55.908Z,97123.78
2022-12-22T04:15:31.866Z,97122.06
2022-12-22T04:17:59.794Z,97110.72
2022-12-22T04:20:28.100Z,97107.44
2022-12-22T04:22:56.232Z,97102.88
2022-12-22T04:25:24.794Z,97096.25
2022-12-22T04:27:51.413Z,97100.16
2022-12-22T04:30:18.517Z,97092.38
2022-12-22T04:32:45.271Z,97102.34
2022-12-22T04:35:12.204Z,97091.84
2022-12-22T04:37:38.845Z,97097.38
2022-12-22T04:40:06.409Z,97092.94
2022-12-22T04:42:32.875Z,97087.28
2022-12-22T04:44:59.366Z,97092.53
2022-12-22T04:47:25.892Z,97089.34
2022-12-22T04:49:52.454Z,97077.28
2022-12-22T04:52:18.913Z,97072.44
2022-12-22T04:54:45.360Z,97068.00
2022-12-22T04:57:11.846Z,97063.88
2022-12-22T04:59:38.351Z,97054.03
2022-12-22T05:02:05.076Z,97054.84
2022-12-22T05:04:32.253Z,97049.06
2022-12-22T05:06:58.716Z,97049.06
2022-12-22T05:09:25.230Z,97039.38
2022-12-22T05:11:51.703Z,97038.13
2022-12-22T05:14:18.242Z,97036.06
2022-12-22T05:16:44.764Z,97028.16
2022-12-22T05:19:11.803Z,97017.09
2022-12-22T05:21:38.303Z,97013.34
2022-12-22T05:24:05.490Z,97015.16
2022-12-22T05:26:31.951Z,97015.56
2022-12-22T05:28:58.554Z,97009.75
2022-12-22T05:31:27.567Z,96999.63
2022-12-22T05:33:54.139Z,96996.03
2022-12-22T05:36:20.652Z,97004.91
2022-12-22T05:38:47.152Z,97001.28
2022-12-22T05:41:14.116Z,96994.09
2022-12-22T05:43:40.971Z,96993.84
2022-12-22T05:46:11.093Z,96988.84
2022-12-22T05:48:39.982Z,96991.59
2022-12-22T05:51:08.881Z,96997.41
2022-12-22T05:53:37.798Z,96997.41
2022-12-22T05:56:05.205Z,96986.91
2022-12-22T05:58:32.793Z,96992.97
2022-12-22T06:01:01.038Z,96995.72
2022-12-22T06:03:29.090Z,97000.03
2022-12-22T06:05:56.017Z,96994.38
2022-12-22T06:08:23.598Z,96987.72
2022-12-22T06:10:50.429Z,96994.22
2022-12-22T06:13:17.069Z,96986.31
2022-12-22T06:15:44.027Z,96984.50
2022-12-22T06:18:10.737Z,96979.16
2022-12-22T06:20:37.271Z,96971.81
2022-12-22T06:23:03.755Z,96968.75
2022-12-22T06:25:30.304Z,96966.53
2022-12-22T06:27:56.755Z,96960.31
2022-12-22T06:30:29.178Z,96962.38
2022-12-22T06:32:57.866Z,96968.59
2022-12-22T06:35:24.312Z,96954.34
2022-12-22T06:37:50.975Z,96954.63
2022-12-22T06:40:17.631Z,96956.94
2022-12-22T06:43:08.358Z,96961.53
2022-12-22T06:45:38.546Z,96959.44
2022-12-22T06:48:06.157Z,96965.28
2022-12-22T06:50:33.015Z,96966.22
2022-12-22T06:52:59.726Z,96968.84
2022-12-22T06:55:26.441Z,96967.19
2022-12-22T06:57:53.011Z,96964.28
2022-12-22T07:00:20.228Z,96972.88
2022-12-22T07:02:47.057Z,96970.53
2022-12-22T07:05:15.501Z,96969.94
2022-12-22T07:07:42.827Z,96970.53
2022-12-22T07:10:10.309Z,96980.94
2022-12-22T07:12:36.807Z,96976.22
2022-12-22T07:15:04.137Z,96974.25
2022-12-22T07:17:30.678Z,96982.16
2022-12-22T07:19:57.158Z,96986.31
2022-12-22T07:22:29.514Z,96976.50
2022-12-22T07:24:56.657Z,96990.44
2022-12-22T07:27:23.240Z,96995.00
2022-12-22T07:29:49.791Z,96991.59
2022-12-22T07:32:16.313Z,96989.22
2022-12-22T07:34:42.776Z,97001.13
2022-12-22T07:37:09.226Z,97002.22
2022-12-22T07:39:35.693Z,97009.31
2022-12-22T07:42:20.805Z,97012.91
2022-12-22T07:44:47.408Z,97023.72
2022-12-22T07:47:13.923Z,97029.53
2022-12-22T07:49:59.045Z,97036.59
2022-12-22T07:52:25.609Z,97040.59
2022-12-22T07:54:52.098Z,97039.09
2022-12-22T07:57:18.574Z,97046.41
2022-12-22T07:59:45.072Z,97050.59
2022-12-22T08:02:12.519Z,97052.41
2022-12-22T08:04:39.111Z,97054.31
2022-12-22T08:07:05.727Z,97060.53
2022-12-22T08:09:32.198Z,97058.88
2022-12-22T08:11:58.749Z,97065.94
2022-12-22T08:14:25.310Z,97080.22
2022-12-22T08:16:51.979Z,97083.81
2022-12-22T08:19:18.545Z,97087.69
2022-12-22T08:21:52.072Z,97087.97
2022-12-22T08:24:19.217Z,97105.16
2022-12-22T08:26:52.550Z,97105.00
2022-12-22T08:29:27.414Z,97107.94
2022-12-22T08:31:55.510Z,97116.66
2022-12-22T08:34:22.079Z,97118.72
2022-12-22T08:36:58.740Z,97122.34
2022-12-22T08:39:27.668Z,97126.44
2022-12-22T08:41:54.927Z,97131.19
2022-12-22T08:44:26.466Z,97141.03
2022-12-22T08:46:55.123Z,97137.84
2022-12-22T08:49:22.394Z,97138.97
2022-12-22T08:51:49.521Z,97150.31
2022-12-22T08:54:16.689Z,97145.47
2022-12-22T08:56:44.214Z,97145.63
2022-12-22T08:59:11.766Z,97151.44
2022-12-22T09:01:47.185Z,97159.31
2022-12-22T09:04:15.668Z,97171.38
2022-12-22T09:06:42.258Z,97167.66
2022-12-22T09:09:12.925Z,97173.19
2022-12-22T09:11:40.952Z,97181.63
2022-12-22T09:14:09.745Z,97183.84
2022-12-22T09:16:37.129Z,97190.50
2022-12-22T09:19:05.021Z,97199.50
2022-12-22T09:21:31.561Z,97207.28
2022-12-22T09:23:59.229Z,97206.28
2022-12-22T09:26:28.528Z,97214.06
2022-12-22T09:28:55.792Z,97211.56
2022-12-22T09:31:24.786Z,97207.69
2022-12-22T09:33:52.615Z,97221.84
2022-12-22T09:36:29.348Z,97221.25
2022-12-22T09:38:55.951Z,97217.94
2022-12-22T09:41:35.387Z,97223.91
2022-12-22T09:44:06.656Z,97225.75
2022-12-22T09:46:37.096Z,97231.59
2022-12-22T09:49:07.167Z,97234.06
2022-12-22T09:51:46.668Z,97240.72
2022-12-22T09:54:14.460Z,97247.94
2022-12-22T09:56:40.918Z,97264.84
2022-12-22T09:59:17.832Z,97272.88
2022-12-22T10:02:28.416Z,97290.75
2022-12-22T10:05:54.108Z,97301.13
2022-12-22T10:08:37.768Z,97299.19
2022-12-22T10:11:04.852Z,97313.78
2022-12-22T10:13:31.895Z,97302.50
2022-12-22T10:15:58.710Z,97312.69
2022-12-22T10:18:28.504Z,97319.22
2022-12-22T10:21:14.633Z,97320.59
2022-12-22T10:23:47.597Z,97329.53
2022-12-22T10:26:31.295Z,97329.06
2022-12-22T10:29:13.188Z,97336.81
2022-12-22T10:32:02.796Z,97347.75
2022-12-22T10:34:30.617Z,97344.34
2022-12-22T10:37:02.714Z,97348.63
2022-12-22T10:39:34.621Z,97348.78
2022-12-22T10:42:09.953Z,97352.91
2022-12-22T10:44:38.935Z,97365.53
2022-12-22T10:47:20.445Z,97356.22
2022-12-22T10:52:29.409Z,97362.28
2022-12-22T10:55:29.209Z,97363.72
2022-12-22T10:58:10.695Z,97358.44
2022-12-22T11:00:38.779Z,97368.47
2022-12-22T11:03:08.214Z,97377.34
2022-12-22T11:05:34.943Z,97378.06
2022-12-22T11:08:17.612Z,97380.16
2022-12-22T11:10:56.889Z,97382.09
2022-12-22T11:13:48.149Z,97394.28
2022-12-22T11:16:33.443Z,97392.06
2022-12-22T11:19:21.150Z,97402.78
2022-12-22T11:22:15.357Z,97403.47
2022-12-22T11:25:14.351Z,97420.63
2022-12-22T11:27:53.037Z,97418.28
2022-12-22T11:30:31.492Z,97423.50
2022-12-22T11:33:35.529Z,97434.06
2022-12-22T11:36:09.614Z,97439.03
2022-12-22T11:39:03.888Z,97449.56
2022-12-22T11:41:55.585Z,97454.88
2022-12-22T11:44:52.677Z,97458.06
2022-12-22T11:47:44.188Z,97461.53
2022-12-22T11:50:59.388Z,97466.06
2022-12-22T11:53:39.898Z,97466.00
2022-12-22T11:56:26.679Z,97468.13
2022-12-22T11:59:34.825Z,97460.47
2022-12-22T12:02:38.795Z,97468.53
2022-12-22T12:05:41.263Z,97484.97
2022-12-22T12:08:41.841Z,97493.97
2022-12-22T12:11:28.985Z,97488.00
2022-12-22T12:14:13.715Z,97492.22
2022-12-22T12:16:58.388Z,97509.69
2022-12-22T12:20:19.237Z,97504.66
2022-12-22T12:23:19.701Z,97506.56
2022-12-22T12:26:29.724Z,97504.19
2022-12-22T12:29:20.237Z,97507.97
2022-12-22T12:32:10.482Z,97518.44
2022-12-22T12:34:45.555Z,97527.09
2022-12-22T12:37:36.934Z,97532.06
2022-12-22T12:40:34.740Z,97536.91
2022-12-22T12:43:03.380Z,97536.09
2022-12-22T12:45:41.548Z,97541.69
2022-12-22T12:48:25.903Z,97537.66
2022-12-22T12:50:57.856Z,97542.50
2022-12-22T12:53:27.657Z,97548.00
2022-12-22T12:55:57.528Z,97548.28
2022-12-22T12:58:37.645Z,97547.25
2022-12-22T13:01:27.034Z,97563.44
2022-12-22T13:04:03.051Z,97555.47
2022-12-22T13:06:53.240Z,97562.22
2022-12-22T13:12:53.448Z,97555.66
2022-12-22T13:15:50.208Z,97553.50
2022-12-22T13:18:25.797Z,97561.00
2022-12-22T13:21:18.656Z,97564.66
2022-12-22T13:24:26.368Z,97572.84
2022-12-22T13:26:59.512Z,97575.25
2022-12-22T13:29:40.365Z,97570.50
2022-12-22T13:32:23.609Z,97579.22
2022-12-22T13:35:30.234Z,97581.22
2022-12-22T13:37:53.864Z,97572.94
2022-12-22T13:40:24.857Z,97578.78
2022-12-22T13:43:19.491Z,97578.91
2022-12-22T13:45:51.015Z,97578.50
2022-12-22T13:48:25.662Z,97571.84
2022-12-22T13:51:00.575Z,97570.38
2022-12-22T13:54:07.014Z,97564.53
2022-12-22T13:56:36.789Z,97580.06
2022-12-22T13:59:18.576Z,97589.81
2022-12-22T14:02:01.176Z,97589.50
2022-12-22T14:04:29.677Z,97595.59
2022-12-22T14:06:56.771Z,97600.34
2022-12-22T14:09:27.631Z,97608.13
2022-12-22T14:12:12.766Z,97608.63
2022-12-22T14:14:44.307Z,97607.66
2022-12-22T14:17:32.567Z,97607.75
2022-12-22T14:20:09.178Z,97608.28
2022-12-22T14:22:40.089Z,97612.28
2022-12-22T14:25:19.107Z,97622.41
2022-12-22T14:27:53.039Z,97615.13
2022-12-22T14:30:24.432Z,97612.94
2022-12-22T14:32:55.889Z,97606.63
2022-12-22T14:35:27.600Z,97607.25
2022-12-22T14:38:26.181Z,97607.63
2022-12-22T14:40:57.557Z,97603.00
2022-12-22T14:43:31.066Z,97611.34
2022-12-22T14:46:18.981Z,97604.97
2022-12-22T14:48:47.403Z,97607.22
2022-12-22T14:51:19.980Z,97608.25
2022-12-22T14:53:53.597Z,97596.31
2022-12-22T14:56:22.214Z,97608.75
2022-12-22T14:58:49.870Z,97614.72
2022-12-22T15:01:28.452Z,97615.19
2022-12-22T15:04:04.526Z,97628.56
2022-12-22T15:06:43.644Z,97618.28
2022-12-22T15:10:03.716Z,97618.81
2022-12-22T15:12:18.279Z,97616.03
2022-12-22T15:14:49.746Z,97614.97
2022-12-22T15:17:27.738Z,97603.13
2022-12-22T15:19:59.287Z,97604.31
2022-12-22T15:22:25.890Z,97602.44
2022-12-22T15:24:52.414Z,97601.47
2022-12-22T15:27:18.979Z,97602.69
2022-12-22T15:29:45.481Z,97600.41
2022-12-22T15:32:13.629Z,97599.44
2022-12-22T15:34:40.434Z,97593.13
2022-12-22T15:37:06.997Z,97590.50
2022-12-22T15:39:33.448Z,97582.84
2022-12-22T15:41:59.972Z,97583.44
2022-12-22T15:44:26.489Z,97576.16
2022-12-22T15:46:57.351Z,97570.19
2022-12-22T15:49:27.814Z,97575.66
2022-12-22T15:52:00.537Z,97568.38
2022-12-22T15:54:29.626Z,97572.78
2022-12-22T15:56:56.312Z,97568.47
2022-12-22T15:59:27.218Z,97579.88
2022-12-22T16:02:01.288Z,97573.69
2022-12-22T16:04:29.188Z,97571.38
2022-12-22T16:06:56.954Z,97569.72
2022-12-22T16:09:28.755Z,97561.75
2022-12-22T16:11:55.329Z,97559.22
2022-12-22T16:14:23.126Z,97551.94
2022-12-22T16:16:49.916Z,97557.69
2022-12-22T16:19:18.616Z,97559.72
2022-12-22T16:21:49.961Z,97555.31
2022-12-22T16:24:28.499Z,97555.56
2022-12-22T16:26:58.657Z,97553.03
2022-12-22T16:29:26.572Z,97550.78
2022-12-22T16:31:55.051Z,97547.72
2022-12-22T16:34:21.690Z,97550.66
2022-12-22T16:36:48.230Z,97553.19
2022-12-22T16:39:14.818Z,97549.47
2022-12-22T16:41:44.119Z,97541.31
2022-12-22T16:47:02.784Z,97539.47
2022-12-22T16:49:29.257Z,97536.25
2022-12-22T16:51:56.091Z,97529.44
2022-12-22T16:54:22.568Z,97529.56
2022-12-22T16:56:51.383Z,97528.16
2022-12-22T16:59:18.408Z,97534.00
2022-12-22T17:01:55.806Z,97527.06
2022-12-22T17:04:28.280Z,97524.56
2022-12-22T17:06:58.284Z,97518.47
2022-12-22T17:09:44.046Z,97525.16
2022-12-22T17:12:19.231Z,97515.13
2022-12-22T17:14:46.837Z,97516.56
2022-12-22T17:17:19.129Z,97512.88
2022-12-22T17:19:45.757Z,97516.81
2022-12-22T17:22:40.300Z,97506.44
2022-12-22T17:25:08.490Z,97504.03
2022-12-22T17:27:35.247Z,97499.03
2022-12-22T17:30:04.032Z,97497.81
2022-12-22T17:32:30.635Z,97501.06
2022-12-22T17:34:57.710Z,97497.13
2022-12-22T17:37:24.383Z,97493.06
2022-12-22T17:39:58.903Z,97484.22
2022-12-22T17:42:25.463Z,97478.16
2022-12-22T17:44:52.682Z,97470.75
2022-12-22T17:47:26.899Z,97462.63
2022-12-22T17:49:58.487Z,97457.00
2022-12-22T17:52:26.967Z,97462.47
2022-12-22T17:54:54.174Z,97450.44
2022-12-22T17:57:27.424Z,97450.91
2022-12-22T17:59:53.902Z,97444.59
2022-12-22T18:02:23.985Z,97444.59
2022-12-22T18:04:50.920Z,97454.50
2022-12-22T18:07:22.772Z,97448.53
2022-12-22T18:09:55.565Z,97452.94
2022-12-22T18:12:24.696Z,97446.63
2022-12-22T18:14:52.100Z,97450.56
2022-12-22T18:17:28.625Z,97445.44
2022-12-22T18:19:59.798Z,97439.97
2022-12-22T18:22:29.441Z,97431.34
2022-12-22T18:24:57.034Z,97428.94
2022-12-22T18:27:24.076Z,97429.19
2022-12-22T18:29:50.593Z,97422.28
2022-12-22T18:32:26.262Z,97421.81
2022-12-22T18:34:54.105Z,97419.88
2022-12-22T18:37:20.721Z,97413.69
2022-12-22T18:39:47.249Z,97413.91
2022-12-22T18:42:23.998Z,97410.94
2022-12-22T18:44:51.368Z,97406.75
2022-12-22T18:47:18.237Z,97403.28
2022-12-22T18:49:45.604Z,97398.03
2022-12-22T18:52:23.038Z,97404.38
2022-12-22T18:54:49.758Z,97400.56
2022-12-22T18:57:19.624Z,97395.03
2022-12-22T18:59:48.048Z,97390.25
2022-12-22T19:02:26.971Z,97389.66
2022-12-22T19:04:55.197Z,97393.06
2022-12-22T19:07:25.229Z,97388.50
2022-12-22T19:09:52.096Z,97382.56
2022-12-22T19:12:25.166Z,97379.66
2022-12-22T19:14:57.697Z,97381.72
2022-12-22T19:17:28.532Z,97365.63
2022-12-22T19:19:56.433Z,97368.25
2022-12-22T19:22:22.941Z,97371.47
2022-12-22T19:24:50.199Z,97359.97
2022-12-22T19:27:24.469Z,97362.38
2022-12-22T19:30:02.967Z,97358.78
2022-12-22T19:32:41.176Z,97361.16
2022-12-22T19:35:18.483Z,97351.97
2022-12-22T19:37:47.180Z,97344.09
2022-12-22T19:40:19.372Z,97341.59
2022-12-22T19:42:49.992Z,97344.22
2022-12-22T19:45:27.051Z,97328.69
2022-12-22T19:47:56.011Z,97327.25
2022-12-22T19:50:26.341Z,97324.47
2022-12-22T19:52:57.107Z,97323.78
2022-12-22T19:55:28.825Z,97322.00
2022-12-22T19:57:55.970Z,97326.16
2022-12-22T20:00:26.635Z,97322.38
2022-12-22T20:02:56.285Z,97323.94
2022-12-22T20:05:22.719Z,97321.50
2022-12-22T20:07:54.300Z,97329.25
2022-12-22T20:10:23.079Z,97315.38
2022-12-22T20:12:54.969Z,97307.97
2022-12-22T20:15:28.644Z,97312.66
2022-12-22T20:17:57.470Z,97308.34
2022-12-22T20:20:35.734Z,97309.56
2022-12-22T20:23:11.988Z,97309.44
2022-12-22T20:25:43.787Z,97301.56
2022-12-22T20:28:24.384Z,97315.75
2022-12-22T20:30:52.245Z,97311.56
2022-12-22T20:33:22.298Z,97309.63
2022-12-22T20:35:51.666Z,97307.34
2022-12-22T20:38:34.379Z,97304.31
2022-12-22T20:41:02.873Z,97307.31
2022-12-22T20:43:33.134Z,97304.03
2022-12-22T20:46:21.133Z,97303.56
2022-12-22T20:48:51.066Z,97298.81
2022-12-22T20:51:21.035Z,97298.31
2022-12-22T20:53:49.012Z,97293.78
2022-12-22T20:56:23.211Z,97292.38
2022-12-22T20:58:50.760Z,97297.03
2022-12-22T21:01:18.836Z,97297.25
2022-12-22T21:03:45.843Z,97298.69
2022-12-22T21:06:29.237Z,97292.84
2022-12-22T21:08:58.747Z,97294.03
2022-12-22T21:11:26.405Z,97292.16
2022-12-22T21:13:54.843Z,97289.13
2022-12-22T21:16:26.656Z,97288.16
2022-12-22T21:18:54.873Z,97298.25
2022-12-22T21:21:22.036Z,97291.81
2022-12-22T21:23:48.827Z,97285.09
2022-12-22T21:26:31.819Z,97281.31
2022-12-22T21:29:02.518Z,97287.97
2022-12-22T21:31:29.221Z,97279.97
2022-12-22T21:33:55.794Z,97281.06
2022-12-22T21:36:33.893Z,97276.22
2022-12-22T21:39:21.065Z,97269.75
2022-12-22T21:42:04.664Z,97277.84
2022-12-22T21:44:34.816Z,97275.22
2022-12-22T21:47:02.392Z,97276.22
2022-12-22T21:49:32.136Z,97277.19
2022-12-22T21:51:59.140Z,97274.97
2022-12-22T21:54:26.580Z,97263.63
2022-12-22T21:56:54.963Z,97261.09
2022-12-22T21:59:22.741Z,97265.72
2022-12-22T22:01:52.466Z,97264.63
2022-12-22T22:04:20.457Z,97264.59
2022-12-22T22:06:46.953Z,97259.84
2022-12-22T22:09:13.664Z,97254.78
2022-12-22T22:11:58.998Z,97252.72
2022-12-22T22:14:26.868Z,97251.16
2022-12-22T22:16:53.509Z,97243.75
2022-12-22T22:19:20.082Z,97241.78
2022-12-22T22:21:47.101Z,97244.44
2022-12-22T22:24:13.732Z,97262.56
2022-12-22T22:26:40.379Z,97255.66
2022-12-22T22:29:07.291Z,97264.50
2022-12-22T22:31:33.870Z,97257.72
2022-12-22T22:34:00.428Z,97252.56
2022-12-22T22:36:26.941Z,97251.22
2022-12-22T22:38:53.520Z,97265.38
2022-12-22T22:41:19.959Z,97258.91
2022-12-22T22:43:46.545Z,97256.16
2022-12-22T22:46:13.121Z,97252.16
2022-12-22T22:48:39.661Z,97236.59
2022-12-22T22:51:10.354Z,97240.16
2022-12-22T22:53:36.861Z,97246.28
2022-12-22T22:56:04.169Z,97260.13
2022-12-22T22:58:30.684Z,97262.59
2022-12-22T23:01:06.121Z,97269.97
2022-12-22T23:03:32.733Z,97259.88
2022-12-22T23:06:07.960Z,97266.19
2022-12-22T23:08:35.883Z,97251.22
2022-12-22T23:11:04.150Z,97248.44
2022-12-22T23:13:31.279Z,97246.13
2022-12-22T23:16:03.034Z,97247.22
2022-12-22T23:18:31.510Z,97243.78
2022-12-22T23:21:04.615Z,97246.78
2022-12-22T23:23:33.421Z,97242.63
2022-12-22T23:26:00.204Z,97244.31
2022-12-22T23:28:26.695Z,97245.56
2022-12-22T23:30:53.949Z,97247.94
2022-12-22T23:33:21.381Z,97243.50
2022-12-22T23:35:50.118Z,97245.16
2022-12-22T23:38:23.112Z,97249.09
2022-12-22T23:40:52.983Z,97247.28
2022-12-22T23:43:20.759Z,97244.34
2022-12-22T23:45:47.217Z,97249.34
2022-12-22T23:48:13.737Z,97244.41
2022-12-22T23:50:40.229Z,97251.81
2022-12-22T23:53:06.755Z,97239.41
2022-12-22T23:55:33.246Z,97231.91
2022-12-22T23:57:59.736Z,97236.44
